sensor_id;sensor_type;location;lat;lon;timestamp;temperature;humidity
21540;DHT22;10931;52.164;5.518;2023-02-07T00:01:36;17.40;61.70
21540;DHT22;10931;52.164;5.518;2023-02-07T00:04:03;17.40;61.70
21540;DHT22;10931;52.164;5.518;2023-02-07T00:06:34;17.30;61.70
21540;DHT22;10931;52.164;5.518;2023-02-07T00:09:02;17.30;61.60
21540;DHT22;10931;52.164;5.518;2023-02-07T00:11:28;17.30;61.70
21540;DHT22;10931;52.164;5.518;2023-02-07T00:13:58;17.30;61.60
21540;DHT22;10931;52.164;5.518;2023-02-07T00:16:24;17.30;61.60
21540;DHT22;10931;52.164;5.518;2023-02-07T00:18:51;17.30;61.60
21540;DHT22;10931;52.164;5.518;2023-02-07T00:21:21;17.30;61.60
21540;DHT22;10931;52.164;5.518;2023-02-07T00:23:51;17.30;61.60
21540;DHT22;10931;52.164;5.518;2023-02-07T00:26:20;17.30;61.60
21540;DHT22;10931;52.164;5.518;2023-02-07T00:28:47;17.20;61.50
21540;DHT22;10931;52.164;5.518;2023-02-07T00:31:33;17.20;61.50
21540;DHT22;10931;52.164;5.518;2023-02-07T00:34:05;17.20;61.50
21540;DHT22;10931;52.164;5.518;2023-02-07T00:36:32;17.20;61.50
21540;DHT22;10931;52.164;5.518;2023-02-07T00:39:11;17.20;61.50
21540;DHT22;10931;52.164;5.518;2023-02-07T00:41:43;17.20;61.50
21540;DHT22;10931;52.164;5.518;2023-02-07T00:44:48;17.10;61.50
21540;DHT22;10931;52.164;5.518;2023-02-07T00:47:48;17.20;61.50
21540;DHT22;10931;52.164;5.518;2023-02-07T00:50:16;17.10;61.50
21540;DHT22;10931;52.164;5.518;2023-02-07T00:52:49;17.10;61.50
21540;DHT22;10931;52.164;5.518;2023-02-07T00:55:38;17.10;61.40
21540;DHT22;10931;52.164;5.518;2023-02-07T01:02:14;17.10;61.50
21540;DHT22;10931;52.164;5.518;2023-02-07T01:04:41;17.00;61.40
21540;DHT22;10931;52.164;5.518;2023-02-07T01:07:11;17.10;61.40
21540;DHT22;10931;52.164;5.518;2023-02-07T01:09:37;17.00;61.40
21540;DHT22;10931;52.164;5.518;2023-02-07T01:12:03;17.00;61.40
21540;DHT22;10931;52.164;5.518;2023-02-07T01:14:38;17.00;61.40
21540;DHT22;10931;52.164;5.518;2023-02-07T01:17:03;17.00;61.40
21540;DHT22;10931;52.164;5.518;2023-02-07T01:19:34;17.00;61.40
21540;DHT22;10931;52.164;5.518;2023-02-07T01:22:16;16.90;61.40
21540;DHT22;10931;52.164;5.518;2023-02-07T01:24:57;16.90;62.10
21540;DHT22;10931;52.164;5.518;2023-02-07T01:27:24;17.00;61.40
21540;DHT22;10931;52.164;5.518;2023-02-07T01:29:52;16.90;61.40
21540;DHT22;10931;52.164;5.518;2023-02-07T01:32:19;16.90;61.40
21540;DHT22;10931;52.164;5.518;2023-02-07T01:34:55;16.90;61.40
21540;DHT22;10931;52.164;5.518;2023-02-07T01:37:21;16.90;61.40
21540;DHT22;10931;52.164;5.518;2023-02-07T01:39:47;16.90;61.30
21540;DHT22;10931;52.164;5.518;2023-02-07T01:42:13;16.90;61.40
21540;DHT22;10931;52.164;5.518;2023-02-07T01:47:17;16.80;61.30
21540;DHT22;10931;52.164;5.518;2023-02-07T01:49:48;16.80;61.30
21540;DHT22;10931;52.164;5.518;2023-02-07T01:52:27;16.80;61.30
21540;DHT22;10931;52.164;5.518;2023-02-07T01:54:58;16.80;61.30
21540;DHT22;10931;52.164;5.518;2023-02-07T01:57:25;16.80;61.30
21540;DHT22;10931;52.164;5.518;2023-02-07T01:59:55;16.80;61.30
21540;DHT22;10931;52.164;5.518;2023-02-07T02:02:28;16.80;61.30
21540;DHT22;10931;52.164;5.518;2023-02-07T02:04:58;16.70;61.20
21540;DHT22;10931;52.164;5.518;2023-02-07T02:07:25;16.70;61.20
21540;DHT22;10931;52.164;5.518;2023-02-07T02:09:51;16.70;61.20
21540;DHT22;10931;52.164;5.518;2023-02-07T02:15:34;16.70;61.20
21540;DHT22;10931;52.164;5.518;2023-02-07T02:36:09;16.60;61.20
21540;DHT22;10931;52.164;5.518;2023-02-07T02:41:34;16.60;61.20
21540;DHT22;10931;52.164;5.518;2023-02-07T02:44:12;16.60;61.20
21540;DHT22;10931;52.164;5.518;2023-02-07T02:46:44;16.50;61.10
21540;DHT22;10931;52.164;5.518;2023-02-07T02:49:14;16.50;61.10
21540;DHT22;10931;52.164;5.518;2023-02-07T02:51:56;16.50;61.10
21540;DHT22;10931;52.164;5.518;2023-02-07T02:54:37;16.50;61.10
21540;DHT22;10931;52.164;5.518;2023-02-07T03:00:12;16.50;61.10
21540;DHT22;10931;52.164;5.518;2023-02-07T03:11:15;16.40;61.00
21540;DHT22;10931;52.164;5.518;2023-02-07T03:17:04;16.40;61.00
21540;DHT22;10931;52.164;5.518;2023-02-07T03:19:35;16.40;61.00
21540;DHT22;10931;52.164;5.518;2023-02-07T03:22:09;16.40;61.00
21540;DHT22;10931;52.164;5.518;2023-02-07T03:24:41;16.30;61.00
21540;DHT22;10931;52.164;5.518;2023-02-07T03:27:13;16.30;61.00
21540;DHT22;10931;52.164;5.518;2023-02-07T03:29:51;16.30;61.00
21540;DHT22;10931;52.164;5.518;2023-02-07T03:32:33;16.30;61.00
21540;DHT22;10931;52.164;5.518;2023-02-07T03:35:19;16.30;61.00
21540;DHT22;10931;52.164;5.518;2023-02-07T03:37:52;16.30;61.00
21540;DHT22;10931;52.164;5.518;2023-02-07T03:40:19;16.30;61.00
21540;DHT22;10931;52.164;5.518;2023-02-07T03:43:01;16.30;61.00
21540;DHT22;10931;52.164;5.518;2023-02-07T03:45:28;16.20;60.90
21540;DHT22;10931;52.164;5.518;2023-02-07T03:47:54;16.20;60.90
21540;DHT22;10931;52.164;5.518;2023-02-07T03:50:26;16.20;60.90
21540;DHT22;10931;52.164;5.518;2023-02-07T03:52:54;16.20;60.90
21540;DHT22;10931;52.164;5.518;2023-02-07T03:55:20;16.20;60.90
21540;DHT22;10931;52.164;5.518;2023-02-07T03:57:46;16.20;60.90
21540;DHT22;10931;52.164;5.518;2023-02-07T04:00:12;16.20;60.60
21540;DHT22;10931;52.164;5.518;2023-02-07T04:02:39;16.20;60.90
21540;DHT22;10931;52.164;5.518;2023-02-07T04:05:05;16.10;60.90
21540;DHT22;10931;52.164;5.518;2023-02-07T04:07:44;16.10;60.80
21540;DHT22;10931;52.164;5.518;2023-02-07T04:10:16;16.20;60.90
21540;DHT22;10931;52.164;5.518;2023-02-07T04:12:47;16.10;60.80
21540;DHT22;10931;52.164;5.518;2023-02-07T04:15:13;16.10;60.80
21540;DHT22;10931;52.164;5.518;2023-02-07T04:17:38;16.10;60.90
21540;DHT22;10931;52.164;5.518;2023-02-07T04:20:23;16.10;60.80
21540;DHT22;10931;52.164;5.518;2023-02-07T04:22:50;16.10;60.80
21540;DHT22;10931;52.164;5.518;2023-02-07T04:25:16;16.10;60.90
21540;DHT22;10931;52.164;5.518;2023-02-07T04:27:43;16.10;60.90
21540;DHT22;10931;52.164;5.518;2023-02-07T04:30:09;16.10;60.80
21540;DHT22;10931;52.164;5.518;2023-02-07T04:32:35;16.00;60.80
21540;DHT22;10931;52.164;5.518;2023-02-07T04:35:36;16.00;60.70
21540;DHT22;10931;52.164;5.518;2023-02-07T04:38:01;16.00;60.70
21540;DHT22;10931;52.164;5.518;2023-02-07T04:40:27;16.00;60.70
21540;DHT22;10931;52.164;5.518;2023-02-07T04:43:12;16.00;60.80
21540;DHT22;10931;52.164;5.518;2023-02-07T04:45:37;16.00;60.70
21540;DHT22;10931;52.164;5.518;2023-02-07T04:48:03;15.90;60.70
21540;DHT22;10931;52.164;5.518;2023-02-07T04:50:29;15.90;60.70
21540;DHT22;10931;52.164;5.518;2023-02-07T04:52:55;15.90;60.70
21540;DHT22;10931;52.164;5.518;2023-02-07T04:55:21;15.90;60.70
21540;DHT22;10931;52.164;5.518;2023-02-07T04:57:49;15.90;60.70
21540;DHT22;10931;52.164;5.518;2023-02-07T05:00:20;15.90;60.70
21540;DHT22;10931;52.164;5.518;2023-02-07T05:02:48;15.90;60.70
21540;DHT22;10931;52.164;5.518;2023-02-07T05:05:14;15.90;60.70
21540;DHT22;10931;52.164;5.518;2023-02-07T05:07:40;15.90;60.70
21540;DHT22;10931;52.164;5.518;2023-02-07T05:10:15;15.80;60.70
21540;DHT22;10931;52.164;5.518;2023-02-07T05:12:40;15.80;60.70
21540;DHT22;10931;52.164;5.518;2023-02-07T05:15:08;15.80;60.70
21540;DHT22;10931;52.164;5.518;2023-02-07T05:17:36;15.80;60.70
21540;DHT22;10931;52.164;5.518;2023-02-07T05:20:09;15.80;60.70
21540;DHT22;10931;52.164;5.518;2023-02-07T05:22:35;15.80;60.70
21540;DHT22;10931;52.164;5.518;2023-02-07T05:25:01;15.80;60.70
21540;DHT22;10931;52.164;5.518;2023-02-07T05:27:26;15.80;60.70
21540;DHT22;10931;52.164;5.518;2023-02-07T05:29:52;15.80;60.70
21540;DHT22;10931;52.164;5.518;2023-02-07T05:32:28;15.70;60.60
21540;DHT22;10931;52.164;5.518;2023-02-07T05:35:12;15.80;60.70
21540;DHT22;10931;52.164;5.518;2023-02-07T05:37:38;15.70;60.60
21540;DHT22;10931;52.164;5.518;2023-02-07T05:40:04;15.70;60.60
21540;DHT22;10931;52.164;5.518;2023-02-07T05:42:30;15.70;60.60
21540;DHT22;10931;52.164;5.518;2023-02-07T05:44:56;15.70;60.60
21540;DHT22;10931;52.164;5.518;2023-02-07T05:47:21;15.70;60.60
21540;DHT22;10931;52.164;5.518;2023-02-07T05:49:47;15.70;60.70
21540;DHT22;10931;52.164;5.518;2023-02-07T05:52:15;15.70;60.60
21540;DHT22;10931;52.164;5.518;2023-02-07T05:54:51;15.60;60.60
21540;DHT22;10931;52.164;5.518;2023-02-07T05:57:17;15.70;60.60
21540;DHT22;10931;52.164;5.518;2023-02-07T05:59:46;15.60;60.60
21540;DHT22;10931;52.164;5.518;2023-02-07T06:02:12;15.60;60.60
21540;DHT22;10931;52.164;5.518;2023-02-07T06:04:37;15.60;60.60
21540;DHT22;10931;52.164;5.518;2023-02-07T06:07:03;15.60;60.60
21540;DHT22;10931;52.164;5.518;2023-02-07T06:09:29;15.60;60.60
21540;DHT22;10931;52.164;5.518;2023-02-07T06:11:55;15.60;60.60
21540;DHT22;10931;52.164;5.518;2023-02-07T06:14:21;15.60;60.60
21540;DHT22;10931;52.164;5.518;2023-02-07T06:16:51;15.50;60.50
21540;DHT22;10931;52.164;5.518;2023-02-07T06:19:17;15.50;60.50
21540;DHT22;10931;52.164;5.518;2023-02-07T06:21:48;15.50;60.50
21540;DHT22;10931;52.164;5.518;2023-02-07T06:24:14;15.50;60.50
21540;DHT22;10931;52.164;5.518;2023-02-07T06:26:40;15.50;60.50
21540;DHT22;10931;52.164;5.518;2023-02-07T06:29:06;15.50;60.50
21540;DHT22;10931;52.164;5.518;2023-02-07T06:31:32;15.50;60.50
21540;DHT22;10931;52.164;5.518;2023-02-07T06:33:58;15.50;60.50
21540;DHT22;10931;52.164;5.518;2023-02-07T06:36:25;15.40;60.40
21540;DHT22;10931;52.164;5.518;2023-02-07T06:39:01;15.40;60.50
21540;DHT22;10931;52.164;5.518;2023-02-07T06:41:28;15.40;60.50
21540;DHT22;10931;52.164;5.518;2023-02-07T06:43:56;15.40;61.20
21540;DHT22;10931;52.164;5.518;2023-02-07T06:46:22;15.40;60.40
21540;DHT22;10931;52.164;5.518;2023-02-07T06:48:48;15.40;60.40
21540;DHT22;10931;52.164;5.518;2023-02-07T06:51:16;15.40;60.40
21540;DHT22;10931;52.164;5.518;2023-02-07T06:53:42;15.40;60.50
21540;DHT22;10931;52.164;5.518;2023-02-07T06:56:10;15.30;60.40
21540;DHT22;10931;52.164;5.518;2023-02-07T06:58:35;15.40;60.50
21540;DHT22;10931;52.164;5.518;2023-02-07T07:01:08;15.30;60.40
21540;DHT22;10931;52.164;5.518;2023-02-07T07:03:33;15.40;60.50
21540;DHT22;10931;52.164;5.518;2023-02-07T07:06:02;15.30;60.40
21540;DHT22;10931;52.164;5.518;2023-02-07T07:08:28;15.30;60.40
21540;DHT22;10931;52.164;5.518;2023-02-07T07:10:56;15.30;60.30
21540;DHT22;10931;52.164;5.518;2023-02-07T07:13:26;15.30;60.40
21540;DHT22;10931;52.164;5.518;2023-02-07T07:15:52;15.30;60.40
21540;DHT22;10931;52.164;5.518;2023-02-07T07:18:20;15.30;60.40
21540;DHT22;10931;52.164;5.518;2023-02-07T07:20:55;15.30;60.40
21540;DHT22;10931;52.164;5.518;2023-02-07T07:23:23;15.30;60.40
21540;DHT22;10931;52.164;5.518;2023-02-07T07:25:54;15.20;60.30
21540;DHT22;10931;52.164;5.518;2023-02-07T07:28:20;15.20;60.30
21540;DHT22;10931;52.164;5.518;2023-02-07T07:30:45;15.20;60.30
21540;DHT22;10931;52.164;5.518;2023-02-07T07:33:15;15.20;60.30
21540;DHT22;10931;52.164;5.518;2023-02-07T07:35:41;15.20;60.30
21540;DHT22;10931;52.164;5.518;2023-02-07T07:38:06;15.20;60.30
21540;DHT22;10931;52.164;5.518;2023-02-07T07:40:32;15.20;60.30
21540;DHT22;10931;52.164;5.518;2023-02-07T07:43:01;15.20;60.30
21540;DHT22;10931;52.164;5.518;2023-02-07T07:45:27;15.20;60.30
21540;DHT22;10931;52.164;5.518;2023-02-07T07:47:56;15.10;60.30
21540;DHT22;10931;52.164;5.518;2023-02-07T07:50:26;15.10;60.30
21540;DHT22;10931;52.164;5.518;2023-02-07T07:52:56;15.10;60.30
21540;DHT22;10931;52.164;5.518;2023-02-07T07:55:22;15.10;60.30
21540;DHT22;10931;52.164;5.518;2023-02-07T07:57:48;15.10;60.30
21540;DHT22;10931;52.164;5.518;2023-02-07T08:00:23;15.10;60.30
21540;DHT22;10931;52.164;5.518;2023-02-07T08:02:49;15.10;60.30
21540;DHT22;10931;52.164;5.518;2023-02-07T08:05:16;15.10;60.30
21540;DHT22;10931;52.164;5.518;2023-02-07T08:08:04;15.10;60.30
21540;DHT22;10931;52.164;5.518;2023-02-07T08:10:30;15.10;60.50
21540;DHT22;10931;52.164;5.518;2023-02-07T08:12:55;15.10;60.30
21540;DHT22;10931;52.164;5.518;2023-02-07T08:15:25;15.00;60.30
21540;DHT22;10931;52.164;5.518;2023-02-07T08:17:53;15.00;60.30
21540;DHT22;10931;52.164;5.518;2023-02-07T08:20:19;15.00;60.30
21540;DHT22;10931;52.164;5.518;2023-02-07T08:22:53;15.00;60.30
21540;DHT22;10931;52.164;5.518;2023-02-07T08:25:26;15.00;60.30
21540;DHT22;10931;52.164;5.518;2023-02-07T08:27:52;15.00;60.30
21540;DHT22;10931;52.164;5.518;2023-02-07T08:30:19;15.00;60.30
21540;DHT22;10931;52.164;5.518;2023-02-07T08:32:45;15.00;60.30
21540;DHT22;10931;52.164;5.518;2023-02-07T08:35:17;15.00;60.30
21540;DHT22;10931;52.164;5.518;2023-02-07T08:37:52;15.00;60.30
21540;DHT22;10931;52.164;5.518;2023-02-07T08:40:23;15.00;60.30
21540;DHT22;10931;52.164;5.518;2023-02-07T08:42:51;15.00;60.30
21540;DHT22;10931;52.164;5.518;2023-02-07T08:45:26;14.90;60.30
21540;DHT22;10931;52.164;5.518;2023-02-07T08:47:55;15.00;60.30
21540;DHT22;10931;52.164;5.518;2023-02-07T08:50:25;14.90;60.30
21540;DHT22;10931;52.164;5.518;2023-02-07T08:52:53;14.90;60.30
21540;DHT22;10931;52.164;5.518;2023-02-07T08:55:21;14.90;60.30
21540;DHT22;10931;52.164;5.518;2023-02-07T08:57:48;14.90;60.30
21540;DHT22;10931;52.164;5.518;2023-02-07T09:00:14;14.90;60.30
21540;DHT22;10931;52.164;5.518;2023-02-07T09:02:42;14.90;60.30
21540;DHT22;10931;52.164;5.518;2023-02-07T09:05:16;14.90;60.40
21540;DHT22;10931;52.164;5.518;2023-02-07T09:07:42;14.90;60.30
21540;DHT22;10931;52.164;5.518;2023-02-07T09:10:12;14.90;60.30
21540;DHT22;10931;52.164;5.518;2023-02-07T09:12:43;14.90;60.30
21540;DHT22;10931;52.164;5.518;2023-02-07T09:15:09;14.80;60.30
21540;DHT22;10931;52.164;5.518;2023-02-07T09:17:36;14.90;60.30
21540;DHT22;10931;52.164;5.518;2023-02-07T09:20:07;14.90;60.40
21540;DHT22;10931;52.164;5.518;2023-02-07T09:22:33;14.80;60.30
21540;DHT22;10931;52.164;5.518;2023-02-07T09:25:19;14.80;60.30
21540;DHT22;10931;52.164;5.518;2023-02-07T09:27:44;14.80;60.30
21540;DHT22;10931;52.164;5.518;2023-02-07T09:30:30;14.80;60.40
21540;DHT22;10931;52.164;5.518;2023-02-07T09:33:13;14.80;60.40
21540;DHT22;10931;52.164;5.518;2023-02-07T09:35:41;14.80;60.40
21540;DHT22;10931;52.164;5.518;2023-02-07T09:38:15;14.80;60.40
21540;DHT22;10931;52.164;5.518;2023-02-07T09:40:42;14.80;60.50
21540;DHT22;10931;52.164;5.518;2023-02-07T09:43:39;14.80;60.40
21540;DHT22;10931;52.164;5.518;2023-02-07T09:46:20;14.80;60.50
21540;DHT22;10931;52.164;5.518;2023-02-07T09:51:55;14.80;60.50
21540;DHT22;10931;52.164;5.518;2023-02-07T09:54:26;14.80;60.50
21540;DHT22;10931;52.164;5.518;2023-02-07T09:56:58;14.80;60.50
21540;DHT22;10931;52.164;5.518;2023-02-07T09:59:42;14.80;60.50
21540;DHT22;10931;52.164;5.518;2023-02-07T10:02:44;14.70;60.40
21540;DHT22;10931;52.164;5.518;2023-02-07T10:05:44;14.80;60.50
21540;DHT22;10931;52.164;5.518;2023-02-07T10:08:16;14.80;60.50
21540;DHT22;10931;52.164;5.518;2023-02-07T10:20:15;14.80;60.70
21540;DHT22;10931;52.164;5.518;2023-02-07T10:23:13;14.70;60.50
21540;DHT22;10931;52.164;5.518;2023-02-07T10:31:59;14.80;60.70
21540;DHT22;10931;52.164;5.518;2023-02-07T10:34:45;14.80;60.70
21540;DHT22;10931;52.164;5.518;2023-02-07T10:37:37;14.70;60.60
21540;DHT22;10931;52.164;5.518;2023-02-07T10:40:10;14.80;60.70
21540;DHT22;10931;52.164;5.518;2023-02-07T10:42:43;14.80;60.70
21540;DHT22;10931;52.164;5.518;2023-02-07T10:45:15;14.70;60.60
21540;DHT22;10931;52.164;5.518;2023-02-07T10:47:44;14.80;60.70
21540;DHT22;10931;52.164;5.518;2023-02-07T10:50:24;14.70;60.60
21540;DHT22;10931;52.164;5.518;2023-02-07T10:52:55;14.70;60.70
21540;DHT22;10931;52.164;5.518;2023-02-07T10:55:44;14.80;60.70
21540;DHT22;10931;52.164;5.518;2023-02-07T10:58:16;14.70;60.70
21540;DHT22;10931;52.164;5.518;2023-02-07T11:00:54;14.80;60.70
21540;DHT22;10931;52.164;5.518;2023-02-07T11:03:37;14.80;60.70
21540;DHT22;10931;52.164;5.518;2023-02-07T11:06:05;14.80;60.70
21540;DHT22;10931;52.164;5.518;2023-02-07T11:08:35;14.80;60.70
21540;DHT22;10931;52.164;5.518;2023-02-07T11:11:26;14.80;60.70
21540;DHT22;10931;52.164;5.518;2023-02-07T11:13:53;14.80;60.70
21540;DHT22;10931;52.164;5.518;2023-02-07T11:16:23;14.80;60.80
21540;DHT22;10931;52.164;5.518;2023-02-07T11:19:00;14.80;60.80
21540;DHT22;10931;52.164;5.518;2023-02-07T11:21:34;14.80;60.70
21540;DHT22;10931;52.164;5.518;2023-02-07T11:24:18;14.90;60.80
21540;DHT22;10931;52.164;5.518;2023-02-07T11:29:43;14.80;60.70
21540;DHT22;10931;52.164;5.518;2023-02-07T11:32:13;14.80;60.70
21540;DHT22;10931;52.164;5.518;2023-02-07T11:35:03;14.90;60.80
21540;DHT22;10931;52.164;5.518;2023-02-07T11:37:56;14.90;60.80
21540;DHT22;10931;52.164;5.518;2023-02-07T11:43:08;14.90;60.80
21540;DHT22;10931;52.164;5.518;2023-02-07T11:46:00;14.90;60.80
21540;DHT22;10931;52.164;5.518;2023-02-07T11:48:31;14.90;60.80
21540;DHT22;10931;52.164;5.518;2023-02-07T11:51:00;14.90;60.80
21540;DHT22;10931;52.164;5.518;2023-02-07T11:53:38;14.90;60.80
21540;DHT22;10931;52.164;5.518;2023-02-07T11:56:35;15.00;60.90
21540;DHT22;10931;52.164;5.518;2023-02-07T11:59:21;15.00;60.80
21540;DHT22;10931;52.164;5.518;2023-02-07T12:01:50;15.00;60.80
21540;DHT22;10931;52.164;5.518;2023-02-07T12:04:26;15.00;60.80
21540;DHT22;10931;52.164;5.518;2023-02-07T12:07:13;15.00;60.90
21540;DHT22;10931;52.164;5.518;2023-02-07T12:10:02;15.00;60.80
21540;DHT22;10931;52.164;5.518;2023-02-07T12:12:55;15.00;60.90
21540;DHT22;10931;52.164;5.518;2023-02-07T12:24:57;15.10;60.90
21540;DHT22;10931;52.164;5.518;2023-02-07T12:27:24;15.10;60.90
21540;DHT22;10931;52.164;5.518;2023-02-07T12:33:22;15.10;61.00
21540;DHT22;10931;52.164;5.518;2023-02-07T12:39:02;15.30;61.40
21540;DHT22;10931;52.164;5.518;2023-02-07T12:41:55;15.40;61.60
21540;DHT22;10931;52.164;5.518;2023-02-07T12:44:39;15.50;61.70
21540;DHT22;10931;52.164;5.518;2023-02-07T12:50:37;15.80;62.00
21540;DHT22;10931;52.164;5.518;2023-02-07T13:05:12;16.50;62.10
21540;DHT22;10931;52.164;5.518;2023-02-07T13:10:53;16.70;62.00
21540;DHT22;10931;52.164;5.518;2023-02-07T13:13:24;16.90;62.00
21540;DHT22;10931;52.164;5.518;2023-02-07T13:24:47;17.40;61.80
21540;DHT22;10931;52.164;5.518;2023-02-07T13:27:20;17.40;61.80
21540;DHT22;10931;52.164;5.518;2023-02-07T13:29:55;17.50;61.80
21540;DHT22;10931;52.164;5.518;2023-02-07T13:32:26;17.60;61.90
21540;DHT22;10931;52.164;5.518;2023-02-07T13:35:06;17.80;61.90
21540;DHT22;10931;52.164;5.518;2023-02-07T13:38:01;17.90;61.90
21540;DHT22;10931;52.164;5.518;2023-02-07T13:40:37;18.00;61.90
21540;DHT22;10931;52.164;5.518;2023-02-07T13:55:41;18.50;61.60
21540;DHT22;10931;52.164;5.518;2023-02-07T14:01:52;18.70;61.50
21540;DHT22;10931;52.164;5.518;2023-02-07T14:04:21;18.80;61.40
21540;DHT22;10931;52.164;5.518;2023-02-07T14:09:46;18.90;61.30
21540;DHT22;10931;52.164;5.518;2023-02-07T14:12:32;19.00;61.30
21540;DHT22;10931;52.164;5.518;2023-02-07T14:18:04;19.20;61.20
21540;DHT22;10931;52.164;5.518;2023-02-07T14:20:45;19.20;61.00
21540;DHT22;10931;52.164;5.518;2023-02-07T14:23:17;19.30;60.90
21540;DHT22;10931;52.164;5.518;2023-02-07T14:25:46;19.30;60.80
21540;DHT22;10931;52.164;5.518;2023-02-07T14:28:33;19.30;60.70
21540;DHT22;10931;52.164;5.518;2023-02-07T14:31:29;19.30;60.60
21540;DHT22;10931;52.164;5.518;2023-02-07T14:34:10;19.30;60.40
21540;DHT22;10931;52.164;5.518;2023-02-07T14:37:18;19.30;60.30
21540;DHT22;10931;52.164;5.518;2023-02-07T14:46:38;19.30;60.20
21540;DHT22;10931;52.164;5.518;2023-02-07T14:52:22;19.30;60.00
21540;DHT22;10931;52.164;5.518;2023-02-07T14:55:20;19.30;60.00
21540;DHT22;10931;52.164;5.518;2023-02-07T14:58:04;19.30;60.00
21540;DHT22;10931;52.164;5.518;2023-02-07T15:00:52;19.30;59.90
21540;DHT22;10931;52.164;5.518;2023-02-07T15:03:20;19.20;59.90
21540;DHT22;10931;52.164;5.518;2023-02-07T15:05:52;19.30;59.90
21540;DHT22;10931;52.164;5.518;2023-02-07T15:08:21;19.20;59.90
21540;DHT22;10931;52.164;5.518;2023-02-07T15:11:21;19.20;59.90
21540;DHT22;10931;52.164;5.518;2023-02-07T15:13:48;19.20;59.80
21540;DHT22;10931;52.164;5.518;2023-02-07T15:16:39;19.20;59.80
21540;DHT22;10931;52.164;5.518;2023-02-07T15:19:18;19.20;59.80
21540;DHT22;10931;52.164;5.518;2023-02-07T15:21:50;19.20;59.80
21540;DHT22;10931;52.164;5.518;2023-02-07T15:24:32;19.20;59.80
21540;DHT22;10931;52.164;5.518;2023-02-07T15:27:07;19.20;59.90
21540;DHT22;10931;52.164;5.518;2023-02-07T15:32:32;19.20;59.80
21540;DHT22;10931;52.164;5.518;2023-02-07T15:35:23;19.20;59.80
21540;DHT22;10931;52.164;5.518;2023-02-07T15:38:14;19.20;59.80
21540;DHT22;10931;52.164;5.518;2023-02-07T15:40:49;19.20;59.80
21540;DHT22;10931;52.164;5.518;2023-02-07T15:43:35;19.20;59.80
21540;DHT22;10931;52.164;5.518;2023-02-07T15:46:06;19.20;59.80
21540;DHT22;10931;52.164;5.518;2023-02-07T15:48:51;19.10;59.80
21540;DHT22;10931;52.164;5.518;2023-02-07T15:51:28;19.10;59.80
21540;DHT22;10931;52.164;5.518;2023-02-07T15:54:14;19.10;59.80
21540;DHT22;10931;52.164;5.518;2023-02-07T15:56:44;19.10;59.80
21540;DHT22;10931;52.164;5.518;2023-02-07T15:59:18;19.10;59.80
21540;DHT22;10931;52.164;5.518;2023-02-07T16:01:57;19.10;59.80
21540;DHT22;10931;52.164;5.518;2023-02-07T16:04:36;19.10;59.80
21540;DHT22;10931;52.164;5.518;2023-02-07T16:07:09;19.10;59.80
21540;DHT22;10931;52.164;5.518;2023-02-07T16:09:45;19.10;59.80
21540;DHT22;10931;52.164;5.518;2023-02-07T16:15:20;19.10;59.90
21540;DHT22;10931;52.164;5.518;2023-02-07T16:17:44;19.00;59.90
21540;DHT22;10931;52.164;5.518;2023-02-07T16:20:14;19.10;59.90
21540;DHT22;10931;52.164;5.518;2023-02-07T16:22:41;19.10;59.90
21540;DHT22;10931;52.164;5.518;2023-02-07T16:25:21;19.10;59.90
21540;DHT22;10931;52.164;5.518;2023-02-07T16:27:51;19.00;59.90
21540;DHT22;10931;52.164;5.518;2023-02-07T16:30:24;19.00;59.90
21540;DHT22;10931;52.164;5.518;2023-02-07T16:32:56;19.00;59.90
21540;DHT22;10931;52.164;5.518;2023-02-07T16:35:28;19.00;59.90
21540;DHT22;10931;52.164;5.518;2023-02-07T16:37:59;19.00;59.90
21540;DHT22;10931;52.164;5.518;2023-02-07T16:40:25;19.00;59.90
21540;DHT22;10931;52.164;5.518;2023-02-07T16:42:58;19.00;59.90
21540;DHT22;10931;52.164;5.518;2023-02-07T16:45:26;18.90;59.80
21540;DHT22;10931;52.164;5.518;2023-02-07T16:47:55;18.90;59.80
21540;DHT22;10931;52.164;5.518;2023-02-07T16:50:27;18.90;59.90
21540;DHT22;10931;52.164;5.518;2023-02-07T16:52:55;18.90;59.80
21540;DHT22;10931;52.164;5.518;2023-02-07T16:55:37;18.90;59.90
21540;DHT22;10931;52.164;5.518;2023-02-07T16:58:29;18.80;59.80
21540;DHT22;10931;52.164;5.518;2023-02-07T17:01:05;18.90;59.90
21540;DHT22;10931;52.164;5.518;2023-02-07T17:03:43;18.80;59.80
21540;DHT22;10931;52.164;5.518;2023-02-07T17:06:15;18.80;59.90
21540;DHT22;10931;52.164;5.518;2023-02-07T17:08:44;18.80;59.90
21540;DHT22;10931;52.164;5.518;2023-02-07T17:11:20;18.80;59.90
21540;DHT22;10931;52.164;5.518;2023-02-07T17:13:55;18.80;59.90
21540;DHT22;10931;52.164;5.518;2023-02-07T17:16:27;18.80;59.90
21540;DHT22;10931;52.164;5.518;2023-02-07T17:18:54;18.80;59.90
21540;DHT22;10931;52.164;5.518;2023-02-07T17:21:21;18.70;59.90
21540;DHT22;10931;52.164;5.518;2023-02-07T17:23:53;18.70;59.90
21540;DHT22;10931;52.164;5.518;2023-02-07T17:26:27;18.70;59.90
21540;DHT22;10931;52.164;5.518;2023-02-07T17:28:55;18.70;59.90
21540;DHT22;10931;52.164;5.518;2023-02-07T17:31:21;18.70;59.90
21540;DHT22;10931;52.164;5.518;2023-02-07T17:33:54;18.70;59.90
21540;DHT22;10931;52.164;5.518;2023-02-07T17:36:21;18.70;59.90
21540;DHT22;10931;52.164;5.518;2023-02-07T17:38:50;18.70;59.90
21540;DHT22;10931;52.164;5.518;2023-02-07T17:41:16;18.70;59.90
21540;DHT22;10931;52.164;5.518;2023-02-07T17:43:51;18.60;59.80
21540;DHT22;10931;52.164;5.518;2023-02-07T17:46:22;18.60;59.80
21540;DHT22;10931;52.164;5.518;2023-02-07T17:48:52;18.60;59.80
21540;DHT22;10931;52.164;5.518;2023-02-07T17:51:21;18.50;59.80
21540;DHT22;10931;52.164;5.518;2023-02-07T17:53:55;18.50;59.80
21540;DHT22;10931;52.164;5.518;2023-02-07T17:56:30;18.50;59.80
21540;DHT22;10931;52.164;5.518;2023-02-07T17:59:01;18.50;59.80
21540;DHT22;10931;52.164;5.518;2023-02-07T18:01:30;18.50;60.00
21540;DHT22;10931;52.164;5.518;2023-02-07T18:03:56;18.40;59.70
21540;DHT22;10931;52.164;5.518;2023-02-07T18:06:27;18.40;59.70
21540;DHT22;10931;52.164;5.518;2023-02-07T18:08:54;18.40;59.80
21540;DHT22;10931;52.164;5.518;2023-02-07T18:11:21;18.40;59.80
21540;DHT22;10931;52.164;5.518;2023-02-07T18:13:56;18.30;59.80
21540;DHT22;10931;52.164;5.518;2023-02-07T18:16:24;18.30;59.80
21540;DHT22;10931;52.164;5.518;2023-02-07T18:18:52;18.30;59.80
21540;DHT22;10931;52.164;5.518;2023-02-07T18:21:18;18.30;59.90
21540;DHT22;10931;52.164;5.518;2023-02-07T18:23:47;18.20;59.80
21540;DHT22;10931;52.164;5.518;2023-02-07T18:26:16;18.20;59.80
21540;DHT22;10931;52.164;5.518;2023-02-07T18:28:44;18.20;59.80
21540;DHT22;10931;52.164;5.518;2023-02-07T18:31:19;18.20;59.80
21540;DHT22;10931;52.164;5.518;2023-02-07T18:33:46;18.10;59.80
21540;DHT22;10931;52.164;5.518;2023-02-07T18:36:12;18.10;59.80